Sonic Adventure (DX): Overall Rankings

Records: Times | Rings | Scores | Races | Bosses | Freestyle
Leaders: Times | Rings | Scores | Races | Bosses | Freestyle | Overall
Rank Player Percent Points Date Grade
1 Sonicspeedruner 98.4% 264 09-01-15 S
2 Gamepro011 97.6% 388 09-01-15 A
3 DarkPolarNight 96.1% 635 09-01-15 A
4 Jawzun 93.8% 1023 09-01-15 A
5 Dashjump 91.6% 1379 09-01-15 A
6 DarkspinesSonic 90.6% 1539 09-01-15 A
7 Avento128bits 90.2% 1609 09-01-15 A
8 ike6252 90.1% 1636 09-01-15 A
9 F-Man 88.3% 1927 09-01-15 A
10 HyperSonic7701 85.0% 2472 09-01-15 A
11 Coolfansonic 83.9% 2658 09-01-15 A
12 yoshifan 83.4% 2732 09-01-15 A
13 frankoredstrato 83.0% 2808 09-01-15 A
14 TheRealShadnic 82.1% 2956 09-01-15 A
15 francisco 82.0% 2971 09-01-15 A
16 Marth 81.7% 3020 09-01-15 A
17 InferSaime 80.4% 3230 09-01-15 A
18 PfoSonic 80.0% 3304 09-01-15 A
19 Paragod 79.5% 3376 09-01-15 B
20 THC98 78.4% 3563 09-01-15 B
21 Stefan 76.2% 3921 09-01-15 B
22 RPGnutter 74.0% 4288 09-01-15 B
23 bertin 73.9% 4301 09-01-15 B
24 sonicam 71.7% 4669 09-01-15 B
25 Combo 65.7% 5663 09-01-15 B
26 drminus 65.1% 5762 09-01-15 B
27 SkyLights 64.5% 5864 09-01-15 B
28 xXMegaManXx 63.7% 5999 09-01-15 B
29 Diamond 62.8% 6142 09-01-15 B
30 OmegaDJ 60.4% 6545 09-01-15 B
31 GerbilSoft 60.3% 6552 09-01-15 B
32 Auriman1 60.3% 6562 09-01-15 B
33 magnum12 59.4% 6712 09-01-15 C
34 Dawid8404 59.3% 6728 09-01-15 C
35 Thorn 57.3% 7052 09-01-15 C
36 P1 Pause 57.1% 7090 09-01-15 C
37 mike89 55.9% 7281 09-01-15 C
38 chainchumper 54.0% 7594 09-01-15 C
38 Groudon199 54.0% 7594 09-01-15 C
40 Dave Cramer 54.0% 7602 09-01-15 C
41 Parax 53.3% 7722 09-01-15 C
42 Shadow Jacky 52.8% 7797 09-01-15 C
43 Psymar 47.7% 8647 09-01-15 C
44 Chao_Fan 45.9% 8935 09-01-15 C
45 Arch 45.6% 8982 09-01-15 C
46 mauserman 45.4% 9022 09-01-15 C
47 Quartz 44.8% 9120 09-01-15 C
48 teamblackarms 43.8% 9290 09-01-15 C
49 Psyknux 43.6% 9326 09-01-15 C
50 James_Bertolli 43.0% 9426 09-01-15 C
51 NintenDan 42.5% 9495 09-01-15 C
52 Webber3000 41.9% 9596 09-01-15 C
53 Turbos 41.9% 9609 09-01-15 C
54 Ring Rush 41.7% 9634 09-01-15 C
55 Fr3nZy 41.6% 9645 09-01-15 C
56 Cream147 41.4% 9681 09-01-15 C
57 videogamemaster777 41.3% 9694 09-01-15 C
58 Siavash Tazari 41.0% 9745 09-01-15 C
59 buddychaos0415 40.6% 9813 09-01-15 C
60 SadisticMystic 40.0% 9922 09-01-15 C
61 eggFL 39.1% 10061 09-01-15 D
62 Redd 38.7% 10130 09-01-15 D
63 SB737 37.5% 10323 09-01-15 D
64 supersonic465 36.8% 10445 09-01-15 D
65 supersonicfan 36.4% 10506 09-01-15 D
66 FuzZerd 35.4% 10682 09-01-15 D
67 elecmouse101 34.6% 10809 09-01-15 D
68 Austinf 33.7% 10963 09-01-15 D
69 metanightmare22 33.1% 11060 09-01-15 D
70 Aitamen 32.9% 11086 09-01-15 D
71 dabestgamer 32.7% 11117 09-01-15 D
72 MiStEr_ShAoLiN 32.7% 11127 09-01-15 D
73 Cyan Ryan 32.6% 11137 09-01-15 D
74 itsPersonnal 31.8% 11278 09-01-15 D
75 Cybrax 31.0% 11399 09-01-15 D
76 Andrea Ritsu 31.0% 11407 09-01-15 D
77 SilvertheAlmighty 30.6% 11476 09-01-15 D
78 danieldude 30.5% 11479 09-01-15 D
79 VMU Player Banned 28.8% 11764 09-01-15 D
80 Omega Rafael Santos 28.5% 11824 09-01-15 D
81 Staf 28.3% 11855 09-01-15 D
82 The T 28.0% 11904 09-01-15 D
83 EngiNerd 27.6% 11964 09-01-15 D
84 lordmetalsonic 27.0% 12068 09-01-15 D
85 Hipertails12 26.8% 12106 09-01-15 D
86 welldooder64 26.3% 12174 09-01-15 D
87 GreatStar 26.3% 12182 09-01-15 D
88 Sondow 26.2% 12192 09-01-15 D
89 The Great Lord Mick 26.0% 12234 09-01-15 D
90 Mastakirby 25.9% 12254 09-01-15 D
91 LinksDarkArrows 25.8% 12266 09-01-15 D
92 Nimrod 25.6% 12300 09-01-15 D
93 Skylace 24.9% 12415 09-01-15 D
94 Rolken 23.4% 12659 09-01-15 D
95 Xia 21.8% 12927 09-01-15 D
96 Kogen Player Banned 21.8% 12933 09-01-15 D
97 a_moustache 21.7% 12942 09-01-15 D
98 Spinballwizard 21.6% 12961 09-01-15 D
99 Don 21.4% 12997 09-01-15 D
100 Cutiefox 21.2% 13020 09-01-15 D
101 Miles9999 21.2% 13021 09-01-15 D
102 f0rever_zer0 21.1% 13034 09-01-15 D
103 Game_Complete 21.1% 13048 09-01-15 D
104 Twilisailor 21.0% 13051 09-01-15 D
105 andres430 20.5% 13143 09-01-15 D
106 Cruizer 20.4% 13165 09-01-15 D
107 iSonicKid2K 20.1% 13205 09-01-15 D
108 SADXTryHard 19.8% 13259 09-01-15 E
109 GarnetPrincess 19.4% 13322 09-01-15 E
110 knuckles_sonic8 18.8% 13428 09-01-15 E
111 AxlThunder 18.7% 13437 09-01-15 E
112 Team_Yoshi 18.2% 13519 09-01-15 E
113 KinkyCadence 18.0% 13548 09-01-15 E
114 The Knuckles Chao 17.9% 13566 09-01-15 E
115 Termon 17.7% 13598 09-01-15 E
116 FoxBoy 17.7% 13608 09-01-15 E
117 LittleBigness 17.6% 13625 09-01-15 E
118 SonicWinDX 17.4% 13657 09-01-15 E
119 Sonic Singularity 15.5% 13961 09-01-15 E
120 Pokemonmaster888 15.5% 13968 09-01-15 E
121 BigAL49 14.5% 14140 09-01-15 E
122 Drakodan 14.4% 14150 09-01-15 E
123 SilverSonic 14.3% 14168 09-01-15 E
124 MPit08 14.2% 14184 09-01-15 E
125 WeegeeZV 14.1% 14203 09-01-15 E
126 Mo Player Banned 14.0% 14212 09-01-15 E
127 Cod4Scopes 13.4% 14312 09-01-15 E
128 Jerzia 13.4% 14314 09-01-15 E
129 HyperSonic64 13.2% 14342 09-01-15 E
130 booo95 13.2% 14347 09-01-15 E
131 Chawkk 13.0% 14375 09-01-15 E
132 Hunters13 12.9% 14389 09-01-15 E
133 paulie9990 12.9% 14390 09-01-15 E
134 SuperSonic101 12.9% 14395 09-01-15 E
135 Maxinfamily 12.7% 14436 09-01-15 E
136 PsyBorg 12.4% 14472 09-01-15 E
137 Kanimayo_Jp 12.4% 14473 09-01-15 E
138 Flying Fox 12.4% 14476 09-01-15 E
139 BrokenArthritis 12.3% 14497 09-01-15 E
140 LilZero 12.2% 14511 09-01-15 E
141 Therio 11.7% 14594 09-01-15 E
142 sonicspeed 11.7% 14597 09-01-15 E
143 douglas 11.5% 14627 09-01-15 E
144 Matt_TY 11.2% 14686 09-01-15 E
145 Cooljay 10.5% 14788 09-01-15 E
146 joecoolgames 10.5% 14790 09-01-15 E
147 SeaWolf 10.5% 14800 09-01-15 E
148 videogamer1014 10.1% 14856 09-01-15 E
149 TFEC Headshot 9.9% 14896 09-01-15 E
150 welshmoose05 9.8% 14909 09-01-15 E
151 crazy1993 9.6% 14944 09-01-15 E
152 OddCook 9.5% 14956 09-01-15 E
153 Mcshuggets 9.5% 14960 09-01-15 E
154 Mariobutch 9.2% 15002 09-01-15 E
155 imazor017 9.2% 15008 09-01-15 E
156 niscool 9.1% 15026 09-01-15 E
157 nuckrieg 9.0% 15039 09-01-15 E
158 SonicAD 9.0% 15050 09-01-15 E
159 SirTobbii 8.8% 15079 09-01-15 E
160 superjupi 8.7% 15093 09-01-15 E
161 Shadowthegreat 8.7% 15094 09-01-15 E
162 SaviourDC 8.4% 15140 09-01-15 E
163 iarebored 8.4% 15143 09-01-15 E
164 sonamyfan666 8.3% 15155 09-01-15 E
165 Werey 8.2% 15167 09-01-15 E
166 SonicKnuckles 8.2% 15173 09-01-15 E
167 adf 7.9% 15229 09-01-15 E
168 ArcticDragon 7.8% 15242 09-01-15 E
169 Megaman EXE565 7.7% 15264 09-01-15 E
170 Platformer 7.4% 15312 09-01-15 E
171 FocusSight64 7.3% 15321 09-01-15 E
172 wheatrich 7.2% 15340 09-01-15 E
173 Swift Hobo 7.2% 15347 09-01-15 E
174 timpkmn89 7.2% 15348 09-01-15 E
175 ethmar 7.1% 15359 09-01-15 E
176 Rickyman48 7.0% 15370 09-01-15 E
177 KitsuneYamaro 6.7% 15426 09-01-15 E
178 Triseena 6.6% 15438 09-01-15 E
179 CyberShadow 6.5% 15458 09-01-15 E
180 slade23 6.4% 15476 09-01-15 E
181 Starlight Sable 6.3% 15482 09-01-15 E
182 dShadow 6.3% 15495 09-01-15 E
183 IsisDazs 6.2% 15504 09-01-15 E
184 BlankTH 6.0% 15542 09-01-15 E
185 Monkeh 5.8% 15571 09-01-15 E
186 Richied 5.7% 15594 09-01-15 E
187 DaDude 5.6% 15606 09-01-15 E
188 SonicU260 5.5% 15618 09-01-15 E
189 sonicd5 5.5% 15624 09-01-15 E
190 Zip 5.4% 15644 09-01-15 E
191 VeritasDL 5.2% 15673 09-01-15 E
192 Kirbymon30 5.1% 15688 09-01-15 E
193 tal39h 5.1% 15695 09-01-15 E
194 soniccoloursunleashed 4.8% 15745 09-01-15 E
195 Drflash55 4.7% 15748 09-01-15 E
196 Yish 4.7% 15756 09-01-15 E
197 neaolas 4.6% 15771 09-01-15 E
198 Bass 4.6% 15773 09-01-15 E
199 Sonicsuperstar1 4.5% 15781 09-01-15 E
200 UninspiredUsername 4.5% 15784 09-01-15 E
201 superiorsonic 4.5% 15789 09-01-15 E
202 zapp 4.5% 15793 09-01-15 E
203 gamefreak1292 4.4% 15803 09-01-15 E
204 Chaos_Overlord 4.1% 15858 09-01-15 E
205 TakaRikka 4.0% 15872 09-01-15 E
206 Valfore 3.9% 15884 09-01-15 E
207 ShinigamiMachine 3.8% 15902 09-01-15 E
208 Regano1000 3.7% 15917 09-01-15 E
209 MK 3.6% 15939 09-01-15 E
210 Ace747 3.5% 15951 09-01-15 E
211 Illidan 3.2% 15998 09-01-15 E
212 HHNNBBHHN 3.2% 16006 09-01-15 E
213 Venick409 3.1% 16012 09-01-15 E
214 Brian_pso 3.1% 16024 09-01-15 E
215 Sithwarrior26 3.0% 16033 09-01-15 E
216 ingx24 2.9% 16052 09-01-15 E
217 TheChaosEmeraIds 2.9% 16053 09-01-15 E
218 Nickson98 2.8% 16062 09-01-15 E
218 SkyBon 2.8% 16062 09-01-15 E
220 FSSRandomvids 2.8% 16073 09-01-15 E
221 Fozer 2.7% 16081 09-01-15 E
222 sonic29887 2.7% 16084 09-01-15 E
223 Colomb_30 2.6% 16096 09-01-15 E
224 TheUltraBlur 2.6% 16100 09-01-15 E
225 1stKirbyever 2.5% 16112 09-01-15 E
226 Badlex727 2.4% 16137 09-01-15 E
227 Th4tN1nj4Turtl3 2.3% 16147 09-01-15 E
228 Cort_pso 2.3% 16148 09-01-15 E
229 Doom-9 2.3% 16150 09-01-15 E
230 nman36 2.2% 16163 09-01-15 E
231 ieatatsonic 2.2% 16165 09-01-15 E
232 Mariosonic15 2.2% 16167 09-01-15 E
233 SonataSpinDash 2.2% 16173 09-01-15 E
234 SuperSonic71087 2.2% 16174 09-01-15 E
235 MStitomix 2.1% 16181 09-01-15 E
236 HermitHelmet 2.1% 16189 09-01-15 E
237 Got4n 2.0% 16199 09-01-15 E
238 Artie 2.0% 16201 09-01-15 E
239 Questionguy555 2.0% 16206 09-01-15 E
240 Jose_15 2.0% 16208 09-01-15 E
241 djmat 1.8% 16228 09-01-15 E
242 SuperSonicfan9595 1.8% 16230 09-01-15 E
243 sonicandamy 1.7% 16243 09-01-15 E
244 LancexExWx 1.7% 16251 09-01-15 E
245 son1cgu1tar 1.7% 16255 09-01-15 E
246 Heroes_Hater 1.7% 16257 09-01-15 E
247 Paixii 1.6% 16260 09-01-15 E
248 BallzeH 1.5% 16277 09-01-15 E
249 Jamixesa 1.5% 16284 09-01-15 E
250 Mankster101 1.5% 16285 09-01-15 E
251 BecauseWarAnvil 1.5% 16288 09-01-15 E
252 Crydio 1.4% 16292 09-01-15 E
253 Shanekilz 1.4% 16299 09-01-15 E
253 SpiritDragon1995 1.4% 16299 09-01-15 E
255 ReuelBrony 1.4% 16305 09-01-15 E
256 stanski 1.3% 16311 09-01-15 E
257 MarewBFN 1.3% 16314 09-01-15 E
258 Sonique Hedgehog 1.3% 16319 09-01-15 E
259 p0ker 1.2% 16328 09-01-15 E
260 Blue Infamy 1.2% 16329 09-01-15 E
261 ErrortheCucco 1.2% 16339 09-01-15 E
262 Arthas 1.1% 16341 09-01-15 E
263 Rikum22 1.1% 16342 09-01-15 E
264 sonic1001 1.1% 16350 09-01-15 E
265 WingedInsignia 1.1% 16352 09-01-15 E
266 AJSIV 1.1% 16356 09-01-15 E
267 syco1098 1.1% 16357 09-01-15 E
268 Sonic the Hedgehod16 1.0% 16360 09-01-15 E
269 sonicfan9 1.0% 16363 09-01-15 E
270 Calfd 1.0% 16368 09-01-15 E
271 BlackArmsShadow 0.9% 16377 09-01-15 E
272 themachoman202 0.9% 16382 09-01-15 E
273 Ben1502 0.9% 16387 09-01-15 E
274 Greham Adelphis 0.9% 16388 09-01-15 E
275 shadowblast63 Player Banned 0.9% 16389 09-01-15 E
276 Fivavoa 0.9% 16390 09-01-15 E
276 MastaToken 0.9% 16390 09-01-15 E
278 Mr. Jones 0.8% 16392 09-01-15 E
279 arcfx1985 0.8% 16394 09-01-15 E
280 darkstarblaze 0.8% 16395 09-01-15 E
280 ptorflaxendrosis 0.8% 16395 09-01-15 E
282 Gvozdevik 0.8% 16398 09-01-15 E
283 FlandreScarlet9999vr 0.8% 16399 09-01-15 E
283 Knuckles 0.8% 16399 09-01-15 E
285 Zeldocto 0.8% 16404 09-01-15 E
286 KaM Mark MaK 0.7% 16409 09-01-15 E
287 BeeAwwb 0.7% 16410 09-01-15 E
288 ShadouZaHejjihoggu 0.7% 16415 09-01-15 E
289 Sonic62 0.7% 16420 09-01-15 E
290 darkersupershadic 0.6% 16424 09-01-15 E
291 Sogeking 0.6% 16425 09-01-15 E
292 dragondragon18 0.6% 16427 09-01-15 E
292 Shadygamerfreak 0.6% 16427 09-01-15 E
292 SonicK100 0.6% 16427 09-01-15 E
295 Grady219 0.6% 16430 09-01-15 E
295 Sarger001 0.6% 16430 09-01-15 E
297 Jawaah 0.6% 16433 09-01-15 E
298 Antek 0.5% 16440 09-01-15 E
299 SilverK 0.5% 16441 09-01-15 E
300 Klaus 0.5% 16442 09-01-15 E
301 SpinDashMaster 0.5% 16444 09-01-15 E
302 BioShadow 0.5% 16447 09-01-15 E
303 Videogamer123 0.5% 16449 09-01-15 E
304 Egor305 0.4% 16464 09-01-15 E
304 oTaiIilLsS 0.4% 16464 09-01-15 E
306 isaihtb11 0.4% 16466 09-01-15 E
306 Mad Andy 0.4% 16466 09-01-15 E
308 OhNoes! 0.4% 16467 09-01-15 E
309 zaktu40 0.4% 16469 09-01-15 E
310 S-MS32X-S 0.4% 16470 09-01-15 E
311 gaara1234 0.4% 16472 09-01-15 E
312 gamed00d 0.3% 16475 09-01-15 E
313 Mister_Slick 0.3% 16482 09-01-15 E
314 Sonic06Fan 0.3% 16485 09-01-15 E
315 Rush Hero 0.3% 16487 09-01-15 E
316 SonicMega167 0.2% 16491 09-01-15 E
317 Iwannabelink 0.2% 16492 09-01-15 E
318 sonknuck23 0.2% 16495 09-01-15 E
319 DanielTheFalcon 0.2% 16501 09-01-15 E
319 gamer1245 0.2% 16501 09-01-15 E
321 Burningskull123 0.1% 16510 09-01-15 E
322 Sonicontherun 0.1% 16519 09-01-15 E
323 Lil_Dude 0.0% 16523 09-01-15 E
324 antiwwe 0.0% 16525 09-01-15 E
325 Cbwade15 0.0% 16529 09-01-15 E
325 Genuine Hedgehog 0.0% 16529 09-01-15 E
327 Tyrouble 0.0% 16532 09-01-15 E
328 MegabombBlade 0.0% 16539 09-01-15 E
328 neji_hyuuga 0.0% 16539 09-01-15 E
328 Over 0.0% 16539 09-01-15 E
328 sdj6707 Player Banned 0.0% 16539 09-01-15 E
328 Tran Sonic Fan Player Banned 0.0% 16539 09-01-15 E

This page is using the New Data Table System. [FUTURE]


-- Back to Normal Skin --
Game ID: 3 | Category ID: 10
Hits: 64,546 | Hits This Month: 23 | DB Calls: 16 | Mem Usage: 5.44 MB | Time: 0.19s | Printable

The Sonic Center v3.9
Copyright 2003-2011 by The Sonic Center Team.